Impacts TAF Board INFO
FOR SITUATIONAL AWARENESS. NOT TO BE USED FOR FLIGHT PLANNING PURPOSES.
IDs:

KTOI - Troy Muni, AL, US

Issued at 1921 UTC 23 May 2018
Updated at 2211 UTC 23 May 2018
Potential Impact None Slight Moderate High
Time<<24/11Z 24/12Z 24/13Z 24/14Z 24/15Z 24/16Z 24/17Z 24/18Z 24/19Z 24/20Z 24/21Z 24/22Z 24/23Z>>
Type PRVL
  [TEMP]  
PRVL
  [TEMP]  
PRVL PRVL PRVL PRVL PRVL
VIS >6
  [4]  
>6
  [4]  
>6 >6 >6 >6 >6
CIG 8
  [8]  
8
  [8]  
8 8 8 8 8
Cover BKN
  [BKN]  
BKN
  [BKN]  
BKN BKN BKN BKN BKN
FltCat IFR
  [IFR]  
IFR
  [IFR]  
IFR IFR IFR IFR IFR
WX VCSH
  [BR]  
VCSH
  [BR]  
VCSH VCSH VCSH VCSH VCSH
WDir VRB
[VRB]
VRB
[VRB]
VRB VRB VRB VRB VRB
WSpd 3
  [3]  
3
  [3]  
3 3 3 3 3
WGst --
  [--]  
--
  [--]  
-- -- -- -- --

Raw TAF
KTOI 231921Z 2319/2418 29005KT P6SM VCTS FEW025 BKN040CB BKN080
  TEMPO 2319/2320 4SM TSRA BKN025CB
  FM232300 28005KT P6SM FEW025 SCT050 BKN250
  FM241000 VRB03KT P6SM VCSH BKN008
  TEMPO 2410/2413 4SM BR


METAR Board
Radar Display
Forecast Discussion

FOR SITUATIONAL AWARENESS. NOT TO BE USED FOR FLIGHT PLANNING PURPOSES.